createdAt,value
2022-11-29T00:01:04.377Z,100.00
2022-11-29T00:03:31.458Z,100.00
2022-11-29T00:06:04.936Z,100.00
2022-11-29T00:08:31.492Z,100.00
2022-11-29T00:11:03.614Z,100.00
2022-11-29T00:13:30.111Z,100.00
2022-11-29T00:16:02.252Z,100.00
2022-11-29T00:18:28.760Z,100.00
2022-11-29T00:20:55.259Z,100.00
2022-11-29T00:23:22.814Z,100.00
2022-11-29T00:25:49.380Z,100.00
2022-11-29T00:28:15.854Z,100.00
2022-11-29T00:30:44.449Z,100.00
2022-11-29T00:33:10.978Z,100.00
2022-11-29T00:35:37.498Z,100.00
2022-11-29T00:38:04.094Z,100.00
2022-11-29T00:40:30.604Z,100.00
2022-11-29T00:42:57.110Z,100.00
2022-11-29T00:45:23.591Z,100.00
2022-11-29T00:47:50.086Z,100.00
2022-11-29T00:50:16.622Z,100.00
2022-11-29T00:52:45.250Z,100.00
2022-11-29T00:55:11.724Z,100.00
2022-11-29T00:57:38.293Z,100.00
2022-11-29T01:00:05.628Z,100.00
2022-11-29T01:02:32.127Z,100.00
2022-11-29T01:04:58.669Z,100.00
2022-11-29T01:07:25.297Z,100.00
2022-11-29T01:09:51.887Z,100.00
2022-11-29T01:12:18.390Z,100.00
2022-11-29T01:14:47.435Z,100.00
2022-11-29T01:17:14.161Z,100.00
2022-11-29T01:19:44.159Z,100.00
2022-11-29T01:22:18.517Z,100.00
2022-11-29T01:24:47.082Z,100.00
2022-11-29T01:27:13.738Z,100.00
2022-11-29T01:29:40.350Z,100.00
2022-11-29T01:32:06.864Z,100.00
2022-11-29T01:34:33.431Z,100.00
2022-11-29T01:36:59.940Z,100.00
2022-11-29T01:39:26.475Z,100.00
2022-11-29T01:41:52.953Z,100.00
2022-11-29T01:44:19.386Z,100.00
2022-11-29T01:46:50.678Z,100.00
2022-11-29T01:49:32.627Z,100.00
2022-11-29T01:52:09.694Z,100.00
2022-11-29T01:54:49.452Z,100.00
2022-11-29T01:57:19.226Z,100.00
2022-11-29T01:59:50.622Z,100.00
2022-11-29T02:02:37.310Z,100.00
2022-11-29T02:05:05.028Z,100.00
2022-11-29T02:07:32.705Z,100.00
2022-11-29T02:09:59.518Z,100.00
2022-11-29T02:12:52.515Z,100.00
2022-11-29T02:15:42.001Z,100.00
2022-11-29T02:18:14.700Z,100.00
2022-11-29T02:21:05.871Z,100.00
2022-11-29T02:24:01.486Z,100.00
2022-11-29T02:26:30.662Z,100.00
2022-11-29T02:29:34.636Z,100.00
2022-11-29T02:32:22.248Z,100.00
2022-11-29T02:35:17.420Z,100.00
2022-11-29T02:38:20.460Z,100.00
2022-11-29T02:41:05.826Z,100.00
2022-11-29T02:44:09.914Z,100.00
2022-11-29T02:47:14.553Z,100.00
2022-11-29T02:49:52.869Z,100.00
2022-11-29T02:52:24.445Z,100.00
2022-11-29T02:55:01.362Z,100.00
2022-11-29T02:57:56.031Z,100.00
2022-11-29T03:00:23.777Z,100.00
2022-11-29T03:03:02.026Z,100.00
2022-11-29T03:06:04.261Z,100.00
2022-11-29T03:08:54.582Z,100.00
2022-11-29T03:11:23.641Z,100.00
2022-11-29T03:14:02.309Z,100.00
2022-11-29T03:16:43.070Z,100.00
2022-11-29T03:19:47.139Z,100.00
2022-11-29T03:22:49.036Z,100.00
2022-11-29T03:25:29.159Z,100.00
2022-11-29T03:28:11.158Z,100.00
2022-11-29T03:30:43.008Z,100.00
2022-11-29T03:33:24.863Z,100.00
2022-11-29T03:36:06.883Z,100.00
2022-11-29T03:38:41.636Z,100.00
2022-11-29T03:41:33.951Z,100.00
2022-11-29T03:44:09.850Z,100.00
2022-11-29T03:46:50.363Z,100.00
2022-11-29T03:49:29.384Z,100.00
2022-11-29T03:52:04.233Z,100.00
2022-11-29T03:55:08.108Z,100.00
2022-11-29T03:57:46.645Z,100.00
2022-11-29T04:00:14.238Z,100.00
2022-11-29T04:03:07.694Z,100.00
2022-11-29T04:05:37.618Z,100.00
2022-11-29T04:08:18.281Z,100.00
2022-11-29T04:11:05.766Z,100.00
2022-11-29T04:14:20.762Z,100.00
2022-11-29T04:17:17.364Z,100.00
2022-11-29T04:20:18.054Z,100.00
2022-11-29T04:23:22.518Z,100.00
2022-11-29T04:26:17.174Z,100.00
2022-11-29T04:29:16.165Z,100.00
2022-11-29T04:31:58.419Z,100.00
2022-11-29T04:34:46.492Z,100.00
2022-11-29T04:37:48.441Z,100.00
2022-11-29T04:40:48.473Z,100.00
2022-11-29T04:43:20.839Z,100.00
2022-11-29T04:46:18.445Z,100.00
2022-11-29T04:48:50.730Z,100.00
2022-11-29T04:51:43.483Z,100.00
2022-11-29T04:54:55.219Z,100.00
2022-11-29T04:57:30.957Z,100.00
2022-11-29T05:00:08.147Z,100.00
2022-11-29T05:03:00.007Z,100.00
2022-11-29T05:06:00.482Z,100.00
2022-11-29T05:08:50.375Z,100.00
2022-11-29T05:11:26.298Z,100.00
2022-11-29T05:14:01.972Z,100.00
2022-11-29T05:16:36.113Z,100.00
2022-11-29T05:19:30.971Z,100.00
2022-11-29T05:22:32.995Z,100.00
2022-11-29T05:25:22.210Z,100.00
2022-11-29T05:28:24.602Z,100.00
2022-11-29T05:31:03.832Z,100.00
2022-11-29T05:33:56.625Z,100.00
2022-11-29T05:36:44.968Z,100.00
2022-11-29T05:39:39.531Z,100.00
2022-11-29T05:42:40.195Z,100.00
2022-11-29T05:45:21.060Z,100.00
2022-11-29T05:48:09.880Z,100.00
2022-11-29T05:50:41.894Z,100.00
2022-11-29T05:53:36.723Z,100.00
2022-11-29T05:56:12.587Z,100.00
2022-11-29T05:58:55.945Z,100.00
2022-11-29T06:01:32.086Z,100.00
2022-11-29T06:04:33.220Z,100.00
2022-11-29T06:07:26.256Z,100.00
2022-11-29T06:10:00.495Z,100.00
2022-11-29T06:12:32.416Z,100.00
2022-11-29T06:15:15.290Z,100.00
2022-11-29T06:18:23.651Z,100.00
2022-11-29T06:21:14.734Z,100.00
2022-11-29T06:23:57.559Z,100.00
2022-11-29T06:26:38.113Z,100.00
2022-11-29T06:29:14.125Z,100.00
2022-11-29T06:31:45.467Z,100.00
2022-11-29T06:34:33.108Z,100.00
2022-11-29T06:37:21.327Z,100.00
2022-11-29T06:39:48.141Z,100.00
2022-11-29T06:42:14.647Z,100.00
2022-11-29T06:44:41.416Z,100.00
2022-11-29T06:47:15.284Z,100.00
2022-11-29T06:49:51.261Z,100.00
2022-11-29T06:52:32.216Z,100.00
2022-11-29T06:55:26.857Z,100.00
2022-11-29T06:58:36.030Z,100.00
2022-11-29T07:01:22.496Z,100.00
2022-11-29T07:04:24.325Z,100.00
2022-11-29T07:06:51.170Z,100.00
2022-11-29T07:09:20.593Z,100.00
2022-11-29T07:11:47.870Z,100.00
2022-11-29T07:14:14.851Z,100.00
2022-11-29T07:16:57.008Z,100.00
2022-11-29T07:19:32.886Z,100.00
2022-11-29T07:22:13.322Z,100.00
2022-11-29T07:25:21.170Z,100.00
2022-11-29T07:28:02.967Z,100.00
2022-11-29T07:31:07.584Z,100.00
2022-11-29T07:33:37.645Z,100.00
2022-11-29T07:36:28.998Z,100.00
2022-11-29T07:39:07.608Z,100.00
2022-11-29T07:42:03.843Z,100.00
2022-11-29T07:44:35.625Z,100.00
2022-11-29T07:47:05.162Z,100.00
2022-11-29T07:49:32.718Z,100.00
2022-11-29T07:51:59.318Z,100.00
2022-11-29T07:54:25.967Z,100.00
2022-11-29T07:56:52.702Z,100.00
2022-11-29T07:59:20.089Z,100.00
2022-11-29T08:01:46.634Z,100.00
2022-11-29T08:04:14.033Z,100.00
2022-11-29T08:06:43.490Z,100.00
2022-11-29T08:09:09.985Z,100.00
2022-11-29T08:11:36.474Z,100.00
2022-11-29T08:14:04.462Z,100.00
2022-11-29T08:16:35.072Z,100.00
2022-11-29T08:19:03.117Z,100.00
2022-11-29T08:21:31.480Z,100.00
2022-11-29T08:23:58.087Z,100.00
2022-11-29T08:26:29.851Z,100.00
2022-11-29T08:28:58.352Z,100.00
2022-11-29T08:31:24.929Z,100.00
2022-11-29T08:33:51.519Z,100.00
2022-11-29T08:36:19.995Z,100.00
2022-11-29T08:38:48.030Z,100.00
2022-11-29T08:41:16.364Z,100.00
2022-11-29T08:43:43.660Z,100.00
2022-11-29T08:46:15.282Z,100.00
2022-11-29T08:48:46.840Z,100.00
2022-11-29T08:51:13.958Z,100.00
2022-11-29T08:53:44.695Z,100.00
2022-11-29T08:56:59.698Z,100.00
2022-11-29T08:59:02.664Z,100.00
2022-11-29T09:01:29.678Z,100.00
2022-11-29T09:04:01.224Z,100.00
2022-11-29T09:06:38.991Z,100.00
2022-11-29T09:09:06.476Z,100.00
2022-11-29T09:11:34.634Z,100.00
2022-11-29T09:14:06.704Z,100.00
2022-11-29T09:16:36.224Z,100.00
2022-11-29T09:19:03.871Z,100.00
2022-11-29T09:21:36.742Z,100.00
2022-11-29T09:24:06.621Z,100.00
2022-11-29T09:26:36.815Z,100.00
2022-11-29T09:29:05.337Z,100.00
2022-11-29T09:31:35.595Z,100.00
2022-11-29T09:34:05.227Z,100.00
2022-11-29T09:36:34.661Z,100.00
2022-11-29T09:39:04.695Z,100.00
2022-11-29T09:42:13.384Z,100.00
2022-11-29T09:45:04.144Z,100.00
2022-11-29T09:47:49.472Z,100.00
2022-11-29T09:50:33.275Z,100.00
2022-11-29T09:53:14.893Z,100.00
2022-11-29T09:56:03.205Z,100.00
2022-11-29T09:58:38.180Z,100.00
2022-11-29T10:01:10.715Z,100.00
2022-11-29T10:03:44.983Z,100.00
2022-11-29T10:06:17.512Z,100.00
2022-11-29T10:08:50.014Z,100.00
2022-11-29T10:11:25.211Z,100.00
2022-11-29T10:13:56.411Z,100.00
2022-11-29T10:16:51.480Z,100.00
2022-11-29T10:19:33.326Z,100.00
2022-11-29T10:22:08.170Z,100.00
2022-11-29T10:24:35.789Z,100.00
2022-11-29T10:27:08.319Z,100.00
2022-11-29T10:29:34.908Z,100.00
2022-11-29T10:32:13.898Z,100.00
2022-11-29T10:34:42.499Z,100.00
2022-11-29T10:37:16.671Z,100.00
2022-11-29T10:40:20.761Z,100.00
2022-11-29T10:42:52.377Z,100.00
2022-11-29T10:45:44.204Z,100.00
2022-11-29T10:48:15.849Z,100.00
2022-11-29T10:50:45.697Z,100.00
2022-11-29T10:53:36.806Z,100.00
2022-11-29T10:56:24.360Z,100.00
2022-11-29T10:59:04.405Z,100.00
2022-11-29T11:01:42.324Z,100.00
2022-11-29T11:04:22.505Z,100.00
2022-11-29T11:06:56.414Z,100.00
2022-11-29T11:09:34.775Z,100.00
2022-11-29T11:12:16.057Z,100.00
2022-11-29T11:14:44.614Z,100.00
2022-11-29T11:17:34.423Z,100.00
2022-11-29T11:20:22.779Z,100.00
2022-11-29T11:23:04.649Z,100.00
2022-11-29T11:25:39.869Z,100.00
2022-11-29T11:28:53.164Z,100.00
2022-11-29T11:31:35.838Z,97.93
2022-11-29T11:34:25.124Z,98.36
2022-11-29T11:36:52.238Z,97.28
2022-11-29T11:39:23.924Z,99.56
2022-11-29T11:42:10.233Z,97.66
2022-11-29T11:44:52.491Z,95.05
2022-11-29T11:47:32.813Z,94.36
2022-11-29T11:50:14.772Z,95.02
2022-11-29T11:52:54.341Z,95.24
2022-11-29T11:55:43.672Z,96.85
2022-11-29T11:58:13.231Z,86.84
2022-11-29T12:01:03.903Z,84.33
2022-11-29T12:03:49.568Z,82.24
2022-11-29T12:06:38.095Z,79.09
2022-11-29T12:09:25.468Z,78.29
2022-11-29T12:12:01.983Z,78.13
2022-11-29T12:14:34.041Z,79.09
2022-11-29T12:17:18.464Z,80.20
2022-11-29T12:20:10.222Z,77.63
2022-11-29T12:23:03.954Z,75.88
2022-11-29T12:25:43.230Z,76.43
2022-11-29T12:28:20.238Z,77.42
2022-11-29T12:31:14.821Z,75.17
2022-11-29T12:34:04.127Z,76.74
2022-11-29T12:36:47.387Z,75.99
2022-11-29T12:39:32.299Z,73.99
2022-11-29T12:42:03.334Z,75.37
2022-11-29T12:44:58.735Z,78.45
2022-11-29T12:47:51.691Z,80.35
2022-11-29T12:50:37.213Z,85.18
2022-11-29T12:53:27.729Z,86.86
2022-11-29T12:56:02.699Z,87.07
2022-11-29T12:59:06.151Z,89.88
2022-11-29T13:02:04.922Z,91.14
2022-11-29T13:04:52.726Z,90.34
2022-11-29T13:07:57.132Z,90.19
2022-11-29T13:10:26.607Z,90.68
2022-11-29T13:12:58.471Z,89.11
2022-11-29T13:15:44.781Z,90.22
2022-11-29T13:18:48.459Z,90.94
2022-11-29T13:21:49.969Z,90.51
2022-11-29T13:24:24.601Z,88.04
2022-11-29T13:26:52.842Z,84.26
2022-11-29T13:29:20.661Z,82.07
2022-11-29T13:31:48.875Z,80.83
2022-11-29T13:34:40.026Z,81.62
2022-11-29T13:37:35.385Z,81.53
2022-11-29T13:40:28.861Z,79.12
2022-11-29T13:43:10.714Z,78.12
2022-11-29T13:45:41.625Z,77.72
2022-11-29T13:48:49.775Z,76.45
2022-11-29T13:51:28.168Z,76.51
2022-11-29T13:53:56.835Z,77.26
2022-11-29T13:56:46.707Z,80.10
2022-11-29T13:59:36.176Z,84.88
2022-11-29T14:02:07.100Z,86.66
2022-11-29T14:04:37.615Z,87.42
2022-11-29T14:07:11.281Z,89.66
2022-11-29T14:09:50.038Z,93.37
2022-11-29T14:12:39.337Z,96.04
2022-11-29T14:15:11.415Z,98.60
2022-11-29T14:17:51.698Z,100.00
2022-11-29T14:20:24.945Z,100.00
2022-11-29T14:23:06.596Z,100.00
2022-11-29T14:25:55.236Z,100.00
2022-11-29T14:28:21.734Z,100.00
2022-11-29T14:31:02.321Z,100.00
2022-11-29T14:33:51.692Z,100.00
2022-11-29T14:36:40.820Z,100.00
2022-11-29T14:39:38.229Z,100.00
2022-11-29T14:42:18.617Z,100.00
2022-11-29T14:44:58.465Z,100.00
2022-11-29T14:47:31.477Z,100.00
2022-11-29T14:50:08.917Z,100.00
2022-11-29T14:52:38.146Z,100.00
2022-11-29T14:55:16.809Z,100.00
2022-11-29T14:58:01.884Z,100.00
2022-11-29T15:00:54.131Z,100.00
2022-11-29T15:03:36.496Z,100.00
2022-11-29T15:06:06.086Z,100.00
2022-11-29T15:08:54.862Z,100.00
2022-11-29T15:11:56.358Z,100.00
2022-11-29T15:14:41.043Z,100.00
2022-11-29T15:17:25.355Z,100.00
2022-11-29T15:20:00.863Z,100.00
2022-11-29T15:22:36.855Z,100.00
2022-11-29T15:25:12.263Z,100.00
2022-11-29T15:27:52.077Z,100.00
2022-11-29T15:30:31.830Z,100.00
2022-11-29T15:33:00.936Z,100.00
2022-11-29T15:35:28.389Z,100.00
2022-11-29T15:37:55.512Z,100.00
2022-11-29T15:40:35.117Z,100.00
2022-11-29T15:43:16.312Z,100.00
2022-11-29T15:45:51.107Z,100.00
2022-11-29T15:48:21.220Z,100.00
2022-11-29T15:50:53.569Z,100.00
2022-11-29T15:53:29.324Z,100.00
2022-11-29T15:55:58.283Z,100.00
2022-11-29T15:58:28.285Z,100.00
2022-11-29T16:00:55.198Z,100.00
2022-11-29T16:03:26.744Z,100.00
2022-11-29T16:06:04.980Z,100.00
2022-11-29T16:08:36.810Z,100.00
2022-11-29T16:11:06.205Z,100.00
2022-11-29T16:13:39.464Z,100.00
2022-11-29T16:16:17.827Z,100.00
2022-11-29T16:18:46.727Z,100.00
2022-11-29T16:21:31.284Z,100.00
2022-11-29T16:23:58.902Z,100.00
2022-11-29T16:26:35.610Z,100.00
2022-11-29T16:29:05.828Z,100.00
2022-11-29T16:31:37.859Z,100.00
2022-11-29T16:34:19.858Z,100.00
2022-11-29T16:36:46.706Z,100.00
2022-11-29T16:39:23.937Z,100.00
2022-11-29T16:42:20.605Z,100.00
2022-11-29T16:45:36.155Z,100.00
2022-11-29T16:48:15.302Z,100.00
2022-11-29T16:50:49.945Z,100.00
2022-11-29T16:53:51.783Z,100.00
2022-11-29T16:56:26.807Z,100.00
2022-11-29T16:59:20.606Z,100.00
2022-11-29T17:01:47.929Z,100.00
2022-11-29T17:04:23.382Z,100.00
2022-11-29T17:06:51.652Z,100.00
2022-11-29T17:09:31.029Z,100.00
2022-11-29T17:12:01.120Z,100.00
2022-11-29T17:14:30.161Z,100.00
2022-11-29T17:17:05.649Z,100.00
2022-11-29T17:19:34.677Z,100.00
2022-11-29T17:22:01.335Z,100.00
2022-11-29T17:24:27.933Z,100.00
2022-11-29T17:26:54.448Z,100.00
2022-11-29T17:29:21.067Z,100.00
2022-11-29T17:31:50.373Z,100.00
2022-11-29T17:34:17.723Z,100.00
2022-11-29T17:36:45.221Z,100.00
2022-11-29T17:39:12.002Z,100.00
2022-11-29T17:41:45.616Z,100.00
2022-11-29T17:44:12.207Z,100.00
2022-11-29T17:46:39.127Z,100.00
2022-11-29T17:49:08.533Z,100.00
2022-11-29T17:51:51.591Z,100.00
2022-11-29T17:54:19.444Z,100.00
2022-11-29T17:56:52.761Z,100.00
2022-11-29T17:59:19.448Z,100.00
2022-11-29T18:01:47.381Z,100.00
2022-11-29T18:04:14.438Z,100.00
2022-11-29T18:06:41.513Z,100.00
2022-11-29T18:09:10.550Z,100.00
2022-11-29T18:11:46.900Z,100.00
2022-11-29T18:14:17.176Z,100.00
2022-11-29T18:16:45.499Z,100.00
2022-11-29T18:19:14.793Z,100.00
2022-11-29T18:21:41.364Z,100.00
2022-11-29T18:24:08.440Z,100.00
2022-11-29T18:26:36.583Z,100.00
2022-11-29T18:29:05.557Z,100.00
2022-11-29T18:31:35.659Z,100.00
2022-11-29T18:34:07.099Z,100.00
2022-11-29T18:36:40.152Z,100.00
2022-11-29T18:39:09.414Z,100.00
2022-11-29T18:41:40.837Z,100.00
2022-11-29T18:44:10.906Z,100.00
2022-11-29T18:46:38.822Z,100.00
2022-11-29T18:49:10.307Z,100.00
2022-11-29T18:51:38.647Z,100.00
2022-11-29T18:54:08.170Z,100.00
2022-11-29T18:56:45.686Z,100.00
2022-11-29T18:59:16.871Z,100.00
2022-11-29T19:01:45.910Z,100.00
2022-11-29T19:04:15.255Z,100.00
2022-11-29T19:06:43.148Z,100.00
2022-11-29T19:09:18.170Z,100.00
2022-11-29T19:11:44.714Z,100.00
2022-11-29T19:14:12.746Z,100.00
2022-11-29T19:16:44.076Z,100.00
2022-11-29T19:19:11.600Z,100.00
2022-11-29T19:21:39.933Z,100.00
2022-11-29T19:24:13.742Z,100.00
2022-11-29T19:26:42.958Z,100.00
2022-11-29T19:29:09.770Z,100.00
2022-11-29T19:31:39.250Z,100.00
2022-11-29T19:34:08.871Z,100.00
2022-11-29T19:36:43.676Z,100.00
2022-11-29T19:39:13.239Z,100.00
2022-11-29T19:41:42.376Z,100.00
2022-11-29T19:44:09.149Z,100.00
2022-11-29T19:46:44.573Z,100.00
2022-11-29T19:49:11.884Z,100.00
2022-11-29T19:51:38.701Z,100.00
2022-11-29T19:54:12.002Z,100.00
2022-11-29T19:56:43.255Z,100.00
2022-11-29T19:59:09.768Z,100.00
2022-11-29T20:01:42.013Z,100.00
2022-11-29T20:04:11.506Z,100.00
2022-11-29T20:06:38.477Z,100.00
2022-11-29T20:09:07.432Z,100.00
2022-11-29T20:11:34.005Z,100.00
2022-11-29T20:14:02.378Z,100.00
2022-11-29T20:16:30.517Z,100.00
2022-11-29T20:18:58.350Z,100.00
2022-11-29T20:21:27.595Z,100.00
2022-11-29T20:23:58.406Z,100.00
2022-11-29T20:26:25.894Z,100.00
2022-11-29T20:28:52.621Z,100.00
2022-11-29T20:31:22.627Z,100.00
2022-11-29T20:33:51.131Z,100.00
2022-11-29T20:36:49.017Z,100.00
2022-11-29T20:39:28.696Z,100.00
2022-11-29T20:42:13.128Z,100.00
2022-11-29T20:44:47.470Z,100.00
2022-11-29T20:47:19.470Z,100.00
2022-11-29T20:49:46.846Z,100.00
2022-11-29T20:52:39.400Z,100.00
2022-11-29T20:55:08.567Z,100.00
2022-11-29T20:57:38.222Z,100.00
2022-11-29T21:00:14.266Z,100.00
2022-11-29T21:02:40.881Z,100.00
2022-11-29T21:05:10.418Z,100.00
2022-11-29T21:07:37.973Z,100.00
2022-11-29T21:10:08.070Z,100.00
2022-11-29T21:12:37.518Z,100.00
2022-11-29T21:15:07.322Z,100.00
2022-11-29T21:17:34.225Z,100.00
2022-11-29T21:20:03.171Z,100.00
2022-11-29T21:22:48.121Z,100.00
2022-11-29T21:25:30.299Z,100.00
2022-11-29T21:28:00.361Z,100.00
2022-11-29T21:30:27.220Z,100.00
2022-11-29T21:32:54.199Z,100.00
2022-11-29T21:35:20.963Z,100.00
2022-11-29T21:37:47.688Z,100.00
2022-11-29T21:40:15.230Z,100.00
2022-11-29T21:42:41.828Z,100.00
2022-11-29T21:45:14.907Z,100.00
2022-11-29T21:47:43.198Z,100.00
2022-11-29T21:50:11.046Z,100.00
2022-11-29T21:52:41.054Z,100.00
2022-11-29T21:55:09.780Z,100.00
2022-11-29T21:57:37.332Z,100.00
2022-11-29T22:00:05.744Z,100.00
2022-11-29T22:02:32.580Z,100.00
2022-11-29T22:04:59.284Z,100.00
2022-11-29T22:07:26.066Z,100.00
2022-11-29T22:09:52.906Z,100.00
2022-11-29T22:12:33.680Z,100.00
2022-11-29T22:15:01.720Z,100.00
2022-11-29T22:17:28.461Z,100.00
2022-11-29T22:19:55.203Z,100.00
2022-11-29T22:22:21.995Z,100.00
2022-11-29T22:24:48.998Z,100.00
2022-11-29T22:27:18.648Z,100.00
2022-11-29T22:29:45.531Z,100.00
2022-11-29T22:32:12.077Z,100.00
2022-11-29T22:34:40.692Z,100.00
2022-11-29T22:37:07.315Z,100.00
2022-11-29T22:39:33.793Z,100.00
2022-11-29T22:42:00.293Z,100.00
2022-11-29T22:44:26.784Z,100.00
2022-11-29T22:46:53.482Z,100.00
2022-11-29T22:49:20.068Z,100.00
2022-11-29T22:51:46.984Z,100.00
2022-11-29T22:54:16.349Z,100.00
2022-11-29T22:56:44.109Z,100.00
2022-11-29T22:59:14.220Z,100.00
2022-11-29T23:01:43.626Z,100.00
2022-11-29T23:04:15.782Z,100.00
2022-11-29T23:06:46.204Z,100.00
2022-11-29T23:09:21.064Z,100.00
2022-11-29T23:11:52.710Z,100.00
2022-11-29T23:14:20.269Z,100.00
2022-11-29T23:16:47.056Z,100.00
2022-11-29T23:19:16.697Z,100.00
2022-11-29T23:21:46.517Z,100.00
2022-11-29T23:24:16.250Z,100.00
2022-11-29T23:26:47.645Z,100.00
2022-11-29T23:29:19.360Z,100.00
2022-11-29T23:31:47.010Z,100.00
2022-11-29T23:34:16.587Z,100.00
2022-11-29T23:36:51.347Z,100.00
2022-11-29T23:39:19.519Z,100.00
2022-11-29T23:41:46.011Z,100.00
2022-11-29T23:44:14.839Z,100.00
2022-11-29T23:46:41.334Z,100.00
2022-11-29T23:49:07.820Z,100.00
2022-11-29T23:51:34.319Z,100.00
2022-11-29T23:54:00.818Z,100.00
2022-11-29T23:56:27.455Z,100.00
2022-11-29T23:58:53.991Z,100.00
